Time;durP1;ratioP1;P1;durP2;ratioP2;P2;SDS_P1;SDS_P2;PMS_P1;PMS_P2;Temp;Humidity;BMP_temperature;BMP_pressure;BME280_temperature;BME280_humidity;BME280_pressure;Samples;Min_cycle;Max_cycle;Signal;HPM_P1;HPM_P2
2023/10/30 00:00:39;;;;;;;1.50;1.40;;;11.90;99.90;;;;;;5022376;28;20044;-92
2023/10/30 00:03:04;;;;;;;1.70;1.60;;;11.90;99.90;;;;;;5014985;28;20060;-95
2023/10/30 00:05:42;;;;;;;1.60;1.50;;;11.90;99.90;;;;;;5017643;28;20060;-91
2023/10/30 00:08:31;;;;;;;1.55;1.45;;;11.90;99.90;;;;;;5050418;28;20060;-94
2023/10/30 00:11:33;;;;;;;1.50;1.40;;;11.80;99.90;;;;;;5025020;28;20145;-96
2023/10/30 00:13:58;;;;;;;1.40;1.35;;;11.80;99.90;;;;;;5030840;28;20217;-87
2023/10/30 00:16:24;;;;;;;1.60;1.50;;;11.80;99.90;;;;;;5050326;28;20059;-93
2023/10/30 00:18:50;;;;;;;1.70;1.60;;;11.80;99.90;;;;;;5013832;28;20060;-94
2023/10/30 00:21:15;;;;;;;1.60;1.50;;;11.80;99.90;;;;;;5036561;28;20137;-89
2023/10/30 00:23:41;;;;;;;1.35;1.33;;;11.80;99.90;;;;;;5016200;28;20053;-90
2023/10/30 00:26:07;;;;;;;1.55;1.45;;;11.80;99.90;;;;;;5050476;28;20051;-92
2023/10/30 00:28:34;;;;;;;1.50;1.40;;;11.80;99.90;;;;;;5037736;28;20051;-90
2023/10/30 00:31:03;;;;;;;1.73;1.63;;;11.80;99.90;;;;;;5019459;28;20095;-94
2023/10/30 00:33:32;;;;;;;1.55;1.45;;;11.80;99.90;;;;;;5025194;28;20044;-93
2023/10/30 00:35:58;;;;;;;1.33;1.33;;;11.90;99.90;;;;;;5019599;28;20070;-91
2023/10/30 00:38:33;;;;;;;1.42;1.40;;;11.90;99.90;;;;;;5034171;28;20486;-96
2023/10/30 00:40:58;;;;;;;1.55;1.45;;;11.90;99.90;;;;;;5039335;28;20072;-92
2023/10/30 00:43:24;;;;;;;1.70;1.60;;;11.90;99.90;;;;;;5037410;28;20044;-96
2023/10/30 00:45:51;;;;;;;1.23;1.23;;;11.90;99.90;;;;;;5018476;28;20534;-90
2023/10/30 00:48:17;;;;;;;1.60;1.50;;;11.80;99.90;;;;;;5034714;28;20051;-87
2023/10/30 00:50:43;;;;;;;1.50;1.40;;;11.80;99.90;;;;;;5018544;28;20032;-88
2023/10/30 00:53:08;;;;;;;1.60;1.50;;;11.80;99.90;;;;;;5031204;28;20041;-87
2023/10/30 00:55:40;;;;;;;1.30;1.30;;;11.90;99.90;;;;;;5038965;28;20542;-88
2023/10/30 00:58:09;;;;;;;1.50;1.40;;;11.80;99.90;;;;;;5031957;28;20045;-90
2023/10/30 01:00:35;;;;;;;1.33;1.33;;;11.80;99.90;;;;;;5064800;28;20048;-93
2023/10/30 01:03:01;;;;;;;1.50;1.40;;;11.90;99.90;;;;;;5020270;28;20105;-94
2023/10/30 01:05:41;;;;;;;1.45;1.35;;;11.80;99.90;;;;;;5034539;28;20107;-90
2023/10/30 01:08:08;;;;;;;1.50;1.40;;;11.80;99.90;;;;;;5032694;28;20048;-87
2023/10/30 01:10:36;;;;;;;1.30;1.30;;;11.90;99.90;;;;;;5034507;28;20040;-89
2023/10/30 01:13:01;;;;;;;1.60;1.50;;;11.80;99.90;;;;;;5030953;28;20069;-91
2023/10/30 01:15:27;;;;;;;1.50;1.40;;;11.90;99.90;;;;;;5011118;28;20080;-92
2023/10/30 01:17:53;;;;;;;1.30;1.30;;;11.90;99.90;;;;;;5039882;28;20068;-87
2023/10/30 01:20:18;;;;;;;1.30;1.30;;;11.90;99.90;;;;;;5014610;28;20120;-85
2023/10/30 01:22:47;;;;;;;1.52;1.42;;;11.90;99.90;;;;;;5015769;28;20144;-93
2023/10/30 01:25:13;;;;;;;1.30;1.30;;;11.90;99.90;;;;;;5028575;28;20132;-90
2023/10/30 01:27:38;;;;;;;1.60;1.50;;;11.90;99.90;;;;;;5019712;28;20120;-88
2023/10/30 01:30:05;;;;;;;1.60;1.50;;;12.00;99.90;;;;;;5025605;28;20104;-90
2023/10/30 01:32:49;;;;;;;1.60;1.50;;;11.90;99.90;;;;;;5054589;28;20111;-96
2023/10/30 01:35:14;;;;;;;;;;;11.90;99.90;;;;;;5034541;28;20067;-89
2023/10/30 01:37:40;;;;;;;1.85;1.75;;;11.90;99.90;;;;;;5015687;28;20591;-91
2023/10/30 01:40:06;;;;;;;1.30;1.30;;;12.00;99.90;;;;;;5026838;28;20052;-91
2023/10/30 01:42:32;;;;;;;1.60;1.50;;;12.00;99.90;;;;;;5034206;28;20048;-88
2023/10/30 01:45:01;;;;;;;1.52;1.42;;;12.00;99.90;;;;;;5031942;28;20045;-86
2023/10/30 01:47:30;;;;;;;1.33;1.33;;;12.00;99.90;;;;;;5026624;28;20045;-92
2023/10/30 01:50:01;;;;;;;1.60;1.50;;;12.10;99.90;;;;;;5025712;28;20047;-93
2023/10/30 01:52:36;;;;;;;1.35;1.35;;;12.10;99.90;;;;;;5056655;28;20051;-90
2023/10/30 01:55:03;;;;;;;1.30;1.30;;;12.20;99.90;;;;;;5033938;28;20469;-88
2023/10/30 01:57:30;;;;;;;1.50;1.40;;;12.20;99.90;;;;;;5055002;28;20052;-89
2023/10/30 01:59:57;;;;;;;1.30;1.30;;;12.20;99.90;;;;;;5033378;28;20068;-88
2023/10/30 02:02:25;;;;;;;1.50;1.40;;;12.30;99.90;;;;;;5050121;28;20063;-86
2023/10/30 02:04:56;;;;;;;1.50;1.40;;;12.30;99.90;;;;;;5034357;28;21096;-91
2023/10/30 02:07:22;;;;;;;1.73;1.63;;;12.30;99.90;;;;;;5012890;28;20057;-92
2023/10/30 02:09:53;;;;;;;1.60;1.50;;;12.30;99.90;;;;;;5033261;28;20044;-92
2023/10/30 02:12:18;;;;;;;1.45;1.38;;;12.40;99.90;;;;;;5020365;28;20514;-84
2023/10/30 02:14:44;;;;;;;1.60;1.50;;;12.30;99.90;;;;;;5033974;28;20036;-88
2023/10/30 02:17:10;;;;;;;1.50;1.40;;;12.40;99.90;;;;;;5056836;28;20075;-85
2023/10/30 02:19:36;;;;;;;1.60;1.50;;;12.50;99.90;;;;;;5028573;28;20044;-83
2023/10/30 02:22:02;;;;;;;1.70;1.60;;;12.40;99.90;;;;;;5028284;28;20164;-89
2023/10/30 02:24:30;;;;;;;1.50;1.40;;;12.50;99.90;;;;;;5018398;28;20045;-90
2023/10/30 02:26:56;;;;;;;1.70;1.60;;;12.40;99.90;;;;;;5015893;28;20529;-90
2023/10/30 02:29:25;;;;;;;1.60;1.50;;;12.60;99.90;;;;;;5016580;28;20045;-91
2023/10/30 02:31:51;;;;;;;1.60;1.50;;;12.60;99.90;;;;;;5034394;28;20103;-87
2023/10/30 02:34:17;;;;;;;1.50;1.40;;;12.60;99.90;;;;;;5028549;28;20084;-85
2023/10/30 02:36:43;;;;;;;1.50;1.40;;;12.60;99.90;;;;;;5026155;28;20045;-87
2023/10/30 02:39:08;;;;;;;1.60;1.50;;;12.60;99.90;;;;;;5044152;28;20047;-89
2023/10/30 02:41:34;;;;;;;1.70;1.60;;;12.60;99.90;;;;;;5030802;28;20048;-86
2023/10/30 02:44:06;;;;;;;1.70;1.60;;;12.60;99.90;;;;;;5010098;28;20044;-90
2023/10/30 02:46:32;;;;;;;1.63;1.52;;;12.60;99.90;;;;;;5024786;28;20160;-89
2023/10/30 02:48:58;;;;;;;1.58;1.48;;;12.70;99.90;;;;;;5049793;28;20135;-91
2023/10/30 02:51:23;;;;;;;1.60;1.50;;;12.60;99.90;;;;;;5045826;28;20069;-88
2023/10/30 02:53:49;;;;;;;1.67;1.58;;;12.70;99.90;;;;;;5032782;28;20148;-89
2023/10/30 02:56:15;;;;;;;1.60;1.50;;;12.60;99.90;;;;;;5014843;28;20041;-87
2023/10/30 02:58:40;;;;;;;1.52;1.42;;;12.70;99.90;;;;;;5029089;28;20053;-86
2023/10/30 03:01:08;;;;;;;1.73;1.63;;;12.70;99.90;;;;;;5018117;28;20052;-89
2023/10/30 03:03:34;;;;;;;1.55;1.45;;;12.60;99.90;;;;;;5027813;28;20049;-92
2023/10/30 03:05:59;;;;;;;1.80;1.70;;;12.60;99.90;;;;;;5015286;28;20040;-87
2023/10/30 03:08:25;;;;;;;1.80;1.70;;;12.60;99.90;;;;;;5047407;28;20049;-88
2023/10/30 03:10:51;;;;;;;1.52;1.42;;;12.60;99.90;;;;;;5018531;28;20041;-89
2023/10/30 03:13:17;;;;;;;1.73;1.63;;;12.70;99.90;;;;;;5035712;28;20170;-88
2023/10/30 03:15:45;;;;;;;1.50;1.40;;;12.70;99.90;;;;;;5019648;28;20602;-85
2023/10/30 03:18:13;;;;;;;1.60;1.50;;;12.70;99.90;;;;;;5020774;28;20048;-85
2023/10/30 03:20:39;;;;;;;1.65;1.55;;;12.60;99.90;;;;;;5035133;28;20045;-89
2023/10/30 03:23:05;;;;;;;1.67;1.58;;;12.60;99.90;;;;;;5017073;28;20541;-88
2023/10/30 03:25:51;;;;;;;1.70;1.60;;;12.60;99.90;;;;;;5034052;28;20041;-88
2023/10/30 03:28:16;;;;;;;1.83;1.73;;;12.60;99.90;;;;;;5036875;28;20542;-87
2023/10/30 03:30:45;;;;;;;1.60;1.50;;;12.50;99.90;;;;;;5016225;28;20052;-95
2023/10/30 03:33:11;;;;;;;1.75;1.65;;;12.50;99.90;;;;;;5038495;28;20036;-87
2023/10/30 03:35:38;;;;;;;1.77;1.67;;;12.50;99.90;;;;;;5020396;28;20859;-88
2023/10/30 03:38:04;;;;;;;1.73;1.63;;;12.40;99.90;;;;;;5031544;28;20128;-86
2023/10/30 03:40:31;;;;;;;1.70;1.60;;;12.40;99.90;;;;;;5032304;28;20132;-90
2023/10/30 03:42:57;;;;;;;1.60;1.50;;;12.50;99.90;;;;;;5023242;28;20288;-92
2023/10/30 03:45:22;;;;;;;1.60;1.50;;;12.50;99.90;;;;;;5025493;28;20041;-89
2023/10/30 03:47:50;;;;;;;1.58;1.48;;;12.40;99.90;;;;;;5037878;28;20045;-91
2023/10/30 03:50:16;;;;;;;1.65;1.55;;;12.40;99.90;;;;;;5016613;28;20199;-90
2023/10/30 03:52:43;;;;;;;1.70;1.60;;;12.40;99.90;;;;;;5032306;28;20561;-87
2023/10/30 03:55:09;;;;;;;1.48;1.40;;;12.40;99.90;;;;;;5031884;28;20102;-93
2023/10/30 03:57:35;;;;;;;1.60;1.50;;;12.40;99.90;;;;;;5049613;28;20048;-85
2023/10/30 04:00:01;;;;;;;1.70;1.60;;;12.30;99.90;;;;;;5033313;28;22384;-85
2023/10/30 04:02:29;;;;;;;1.60;1.50;;;12.30;99.90;;;;;;5054331;28;20041;-89
2023/10/30 04:04:55;;;;;;;1.52;1.42;;;12.30;99.90;;;;;;5015459;28;20046;-92
2023/10/30 04:07:20;;;;;;;1.63;1.52;;;12.30;99.90;;;;;;5046756;28;20049;-88
2023/10/30 04:09:46;;;;;;;1.63;1.52;;;12.30;99.90;;;;;;5022690;28;20036;-86
2023/10/30 04:12:12;;;;;;;1.50;1.40;;;12.30;99.90;;;;;;5035349;28;20041;-89
2023/10/30 04:14:40;;;;;;;1.50;1.40;;;12.30;99.90;;;;;;5002073;28;20486;-94
2023/10/30 04:17:06;;;;;;;1.70;1.60;;;12.30;99.90;;;;;;5053761;28;20938;-93
2023/10/30 04:19:32;;;;;;;1.60;1.50;;;12.30;99.90;;;;;;5035590;28;20048;-89
2023/10/30 04:22:00;;;;;;;1.30;1.30;;;12.30;99.90;;;;;;5021823;28;20084;-93
2023/10/30 04:24:26;;;;;;;1.58;1.48;;;12.30;99.90;;;;;;5023282;28;20041;-87
2023/10/30 04:26:52;;;;;;;1.40;1.40;;;12.20;99.90;;;;;;5040101;28;20127;-91
2023/10/30 04:29:28;;;;;;;1.30;1.30;;;12.10;99.90;;;;;;5033031;28;20574;-93
2023/10/30 04:31:56;;;;;;;1.60;1.50;;;12.10;99.90;;;;;;5024507;28;20048;-93
2023/10/30 04:34:23;;;;;;;1.50;1.40;;;12.20;99.90;;;;;;5040421;28;20037;-88
2023/10/30 04:36:49;;;;;;;1.63;1.52;;;12.10;99.90;;;;;;5049837;28;20052;-91
2023/10/30 04:39:14;;;;;;;1.30;1.30;;;12.10;99.90;;;;;;5039711;28;20522;-90
2023/10/30 04:41:40;;;;;;;1.50;1.40;;;12.00;99.90;;;;;;5038377;28;20612;-90
2023/10/30 04:44:06;;;;;;;1.30;1.30;;;12.00;99.90;;;;;;5031796;28;20051;-88
2023/10/30 04:46:32;;;;;;;1.35;1.35;;;11.90;99.90;;;;;;5037038;28;20167;-89
2023/10/30 04:48:58;;;;;;;1.60;1.50;;;12.00;99.90;;;;;;5033873;28;20048;-91
2023/10/30 04:51:25;;;;;;;1.30;1.30;;;11.90;99.90;;;;;;5023404;28;20044;-93
2023/10/30 04:53:54;;;;;;;1.50;1.40;;;11.90;99.90;;;;;;5033690;28;20120;-88
2023/10/30 04:56:19;;;;;;;1.33;1.33;;;12.00;99.90;;;;;;5038884;28;20122;-87
2023/10/30 04:58:45;;;;;;;1.70;1.60;;;11.90;99.90;;;;;;5036825;28;20494;-91
2023/10/30 05:01:14;;;;;;;1.40;1.40;;;12.00;99.90;;;;;;5019919;28;20131;-94
2023/10/30 05:03:40;;;;;;;1.50;1.40;;;12.00;99.90;;;;;;5016285;28;20087;-87
2023/10/30 05:06:06;;;;;;;1.70;1.60;;;12.00;99.90;;;;;;5035411;28;20080;-88
2023/10/30 05:08:32;;;;;;;1.50;1.40;;;11.90;99.90;;;;;;5037466;28;20045;-93
2023/10/30 05:11:03;;;;;;;1.30;1.30;;;11.90;99.90;;;;;;5051693;28;20043;-93
2023/10/30 05:13:29;;;;;;;1.40;1.40;;;11.90;99.90;;;;;;5033516;28;20041;-87
2023/10/30 05:15:57;;;;;;;1.30;1.30;;;11.80;99.90;;;;;;5016183;28;20541;-85
2023/10/30 05:18:25;;;;;;;1.30;1.30;;;11.90;99.90;;;;;;5032421;28;20088;-94
2023/10/30 05:20:53;;;;;;;1.60;1.50;;;11.90;99.90;;;;;;5040214;28;20127;-94
2023/10/30 05:23:19;;;;;;;1.23;1.23;;;11.90;99.90;;;;;;5021086;28;20063;-90
2023/10/30 05:25:45;;;;;;;1.48;1.40;;;11.80;99.90;;;;;;5018245;28;20037;-88
2023/10/30 05:28:11;;;;;;;1.30;1.30;;;11.90;99.90;;;;;;5036653;28;20506;-87
2023/10/30 05:30:37;;;;;;;1.50;1.40;;;11.80;99.90;;;;;;5037857;28;20068;-87
2023/10/30 05:33:03;;;;;;;1.50;1.40;;;11.90;99.90;;;;;;5014036;28;20048;-88
2023/10/30 05:35:37;;;;;;;1.48;1.40;;;11.80;99.90;;;;;;5051895;28;20037;-91
2023/10/30 05:38:06;;;;;;;1.50;1.40;;;11.90;99.90;;;;;;5018716;28;20044;-90
2023/10/30 05:40:32;;;;;;;1.25;1.25;;;11.90;99.90;;;;;;5014911;28;20041;-92
2023/10/30 05:42:57;;;;;;;1.50;1.40;;;12.00;99.90;;;;;;5017796;28;20143;-91
2023/10/30 05:45:23;;;;;;;1.30;1.30;;;11.90;99.90;;;;;;5021849;28;20893;-89
2023/10/30 05:47:52;;;;;;;1.25;1.25;;;12.00;99.90;;;;;;5019296;28;20081;-94
2023/10/30 05:50:27;;;;;;;1.48;1.40;;;11.90;99.90;;;;;;5016128;28;20123;-92
2023/10/30 05:52:52;;;;;;;1.50;1.40;;;11.80;99.90;;;;;;5050947;28;20405;-87
2023/10/30 05:55:18;;;;;;;1.50;1.40;;;11.90;99.90;;;;;;5040034;28;20049;-89
2023/10/30 05:57:45;;;;;;;1.60;1.50;;;11.90;99.90;;;;;;5032032;28;20045;-87
2023/10/30 06:00:14;;;;;;;1.30;1.30;;;11.90;99.90;;;;;;5029846;28;20045;-91
2023/10/30 06:02:40;;;;;;;1.30;1.30;;;11.90;99.90;;;;;;5035493;28;20123;-90
2023/10/30 06:05:08;;;;;;;1.30;1.30;;;11.80;99.90;;;;;;5036335;28;20132;-88
2023/10/30 06:07:36;;;;;;;1.50;1.40;;;11.80;99.90;;;;;;5021605;28;20048;-92
2023/10/30 06:10:04;;;;;;;1.50;1.40;;;12.00;99.90;;;;;;5043789;28;20046;-91
2023/10/30 06:12:30;;;;;;;1.42;1.35;;;11.90;99.90;;;;;;5013378;28;20048;-91
2023/10/30 06:15:07;;;;;;;1.20;1.20;;;11.90;99.90;;;;;;5031602;28;21428;-93
2023/10/30 06:17:34;;;;;;;1.30;1.30;;;11.90;99.90;;;;;;5019875;28;20051;-87
2023/10/30 06:20:00;;;;;;;1.42;1.40;;;11.90;99.90;;;;;;5017359;28;20938;-90
2023/10/30 06:22:26;;;;;;;1.30;1.30;;;11.80;99.90;;;;;;5021023;28;20109;-91
2023/10/30 06:24:52;;;;;;;1.50;1.40;;;11.80;99.90;;;;;;5032512;28;20045;-89
2023/10/30 06:27:21;;;;;;;1.30;1.30;;;11.90;99.90;;;;;;5044836;28;20076;-88
2023/10/30 06:29:47;;;;;;;1.42;1.40;;;12.00;99.90;;;;;;5025180;28;20069;-92
2023/10/30 06:32:15;;;;;;;1.50;1.40;;;11.90;99.90;;;;;;5012051;28;20533;-93
2023/10/30 06:34:53;;;;;;;1.52;1.42;;;11.90;99.90;;;;;;5022196;28;20038;-94
2023/10/30 06:37:19;;;;;;;1.50;1.40;;;11.80;99.90;;;;;;5050319;28;20398;-87
2023/10/30 06:39:50;;;;;;;1.30;1.30;;;11.80;99.90;;;;;;5033171;28;20052;-94
2023/10/30 06:42:16;;;;;;;1.35;1.33;;;11.90;99.90;;;;;;5017933;28;20131;-90
2023/10/30 06:44:42;;;;;;;1.30;1.30;;;11.90;99.90;;;;;;5027359;28;20624;-89
2023/10/30 06:47:10;;;;;;;1.30;1.30;;;11.90;99.90;;;;;;5020191;28;20060;-92
2023/10/30 06:49:55;;;;;;;1.35;1.33;;;11.90;99.90;;;;;;5071322;28;20071;-96
2023/10/30 06:52:42;;;;;;;1.42;1.40;;;11.90;99.90;;;;;;5063418;28;20041;-96
2023/10/30 06:55:46;;;;;;;1.30;1.30;;;12.00;99.90;;;;;;5025123;28;20662;-94
2023/10/30 06:58:28;;;;;;;;;;;;;;;;;;;;;
2023/10/30 07:01:05;;;;;;;1.30;1.30;;;11.90;99.90;;;;;;5049454;28;20124;-86
2023/10/30 07:03:35;;;;;;;1.50;1.40;;;11.90;99.90;;;;;;5032017;28;20044;-85
2023/10/30 07:06:01;;;;;;;1.50;1.40;;;12.00;99.90;;;;;;5019496;28;20037;-92
2023/10/30 07:08:29;;;;;;;1.60;1.50;;;12.20;99.90;;;;;;5022089;28;20390;-94
2023/10/30 07:10:55;;;;;;;1.52;1.42;;;12.30;99.90;;;;;;5041670;28;20072;-87
2023/10/30 07:13:22;;;;;;;1.60;1.50;;;12.40;99.90;;;;;;5071904;28;20045;-92
2023/10/30 07:15:51;;;;;;;1.65;1.55;;;12.40;99.90;;;;;;5018286;28;20052;-88
2023/10/30 07:18:17;;;;;;;1.58;1.48;;;12.50;99.90;;;;;;5039531;28;20322;-89
2023/10/30 07:20:43;;;;;;;1.60;1.50;;;12.70;99.90;;;;;;5014690;28;20152;-85
2023/10/30 07:23:09;;;;;;;1.60;1.50;;;12.70;99.90;;;;;;5036426;28;20124;-87
2023/10/30 07:28:35;;;;;;;1.63;1.52;;;12.90;99.90;;;;;;5033528;28;20395;-93
2023/10/30 07:31:03;;;;;;;1.70;1.60;;;13.00;99.90;;;;;;5073672;28;20406;-90
2023/10/30 07:33:29;;;;;;;1.90;1.80;;;13.00;99.90;;;;;;5022651;28;20394;-87
2023/10/30 07:36:01;;;;;;;1.83;1.73;;;13.10;99.90;;;;;;5043695;28;20037;-95
2023/10/30 07:38:40;;;;;;;1.95;1.85;;;13.10;99.90;;;;;;5032050;28;20099;-93
2023/10/30 07:41:15;;;;;;;1.77;1.67;;;13.30;99.90;;;;;;5031167;28;20095;-93
2023/10/30 07:43:40;;;;;;;1.98;1.88;;;13.30;99.90;;;;;;5040743;28;20062;-94
2023/10/30 07:46:15;;;;;;;1.85;1.75;;;13.30;99.90;;;;;;5041750;28;20482;-96
2023/10/30 07:48:41;;;;;;;1.95;1.85;;;13.40;99.90;;;;;;5028262;28;20045;-91
2023/10/30 07:51:31;;;;;;;2.00;1.90;;;13.50;99.90;;;;;;5028458;28;20057;-96
2023/10/30 07:54:14;;;;;;;1.92;1.83;;;13.50;99.90;;;;;;5012664;28;20063;-96
2023/10/30 07:56:39;;;;;;;1.88;1.77;;;13.70;99.90;;;;;;5023941;28;20047;-87
2023/10/30 07:59:15;;;;;;;2.03;1.92;;;13.70;99.90;;;;;;5019674;28;20140;-95
2023/10/30 08:01:40;;;;;;;1.92;1.83;;;13.80;99.90;;;;;;5040750;28;20047;-88
2023/10/30 08:04:09;;;;;;;2.05;1.95;;;13.80;99.90;;;;;;5021395;28;20046;-87
2023/10/30 08:06:35;;;;;;;2.10;2.00;;;13.90;99.90;;;;;;5067595;28;20056;-92
2023/10/30 08:09:01;;;;;;;2.00;1.90;;;13.90;99.90;;;;;;5020434;28;20049;-86
2023/10/30 08:11:27;;;;;;;2.08;1.98;;;14.00;99.90;;;;;;5035273;28;20132;-91
2023/10/30 08:13:53;;;;;;;2.10;2.00;;;14.10;99.90;;;;;;5032529;28;20415;-84
2023/10/30 08:16:19;;;;;;;1.90;1.80;;;14.20;99.90;;;;;;5057639;28;20076;-86
2023/10/30 08:18:44;;;;;;;1.95;1.85;;;14.20;99.90;;;;;;5052062;28;20043;-92
2023/10/30 08:21:10;;;;;;;1.70;1.60;;;14.30;99.90;;;;;;5037495;28;20045;-93
2023/10/30 08:23:37;;;;;;;1.80;1.70;;;14.30;99.90;;;;;;5020157;28;20048;-84
2023/10/30 08:26:09;;;;;;;1.95;1.85;;;14.40;99.90;;;;;;5028730;28;20063;-89
2023/10/30 08:28:35;;;;;;;1.77;1.67;;;14.50;99.90;;;;;;5042344;28;20041;-84
2023/10/30 08:31:01;;;;;;;1.67;1.58;;;14.60;99.90;;;;;;5030665;28;20167;-85
2023/10/30 08:33:38;;;;;;;1.75;1.65;;;14.50;99.90;;;;;;5032561;28;20124;-94
2023/10/30 08:36:04;;;;;;;1.80;1.70;;;14.60;99.90;;;;;;5031120;28;20475;-86
2023/10/30 08:38:30;;;;;;;1.85;1.75;;;14.60;99.90;;;;;;5023693;28;20044;-88
2023/10/30 08:40:56;;;;;;;1.48;1.42;;;14.70;99.90;;;;;;5018314;28;20041;-91
2023/10/30 08:43:22;;;;;;;1.85;1.75;;;14.70;99.90;;;;;;5020219;28;20045;-88
2023/10/30 08:45:47;;;;;;;1.50;1.45;;;14.80;99.90;;;;;;5015644;28;20269;-89
2023/10/30 08:48:13;;;;;;;1.75;1.65;;;14.80;99.90;;;;;;5059086;28;20083;-87
2023/10/30 08:50:40;;;;;;;1.58;1.50;;;14.90;99.90;;;;;;5041670;28;20680;-87
2023/10/30 08:53:06;;;;;;;1.40;1.38;;;15.00;99.90;;;;;;5035433;28;20811;-91
2023/10/30 08:55:32;;;;;;;1.55;1.50;;;15.00;99.90;;;;;;5031855;28;20044;-87
2023/10/30 08:57:58;;;;;;;1.33;1.30;;;15.10;99.90;;;;;;5040437;28;20044;-93
2023/10/30 09:00:24;;;;;;;1.38;1.38;;;15.10;99.90;;;;;;5017417;28;20037;-90
2023/10/30 09:02:50;;;;;;;1.38;1.38;;;15.20;99.90;;;;;;5019145;28;20666;-89
2023/10/30 09:05:16;;;;;;;1.48;1.45;;;15.30;99.90;;;;;;5023150;28;20067;-85
2023/10/30 09:07:43;;;;;;;1.27;1.27;;;15.10;99.90;;;;;;5017967;28;20052;-86
2023/10/30 09:10:09;;;;;;;1.40;1.38;;;15.10;99.90;;;;;;5034083;28;20580;-90
2023/10/30 09:12:35;;;;;;;1.42;1.40;;;15.00;99.90;;;;;;5047382;28;20052;-90
2023/10/30 09:15:00;;;;;;;1.23;1.23;;;15.00;99.90;;;;;;5015041;28;20037;-89
2023/10/30 09:17:26;;;;;;;1.40;1.40;;;14.80;99.90;;;;;;5014171;28;20095;-87
2023/10/30 09:19:52;;;;;;;1.48;1.42;;;14.60;99.90;;;;;;5018549;28;20123;-90
2023/10/30 09:22:18;;;;;;;1.55;1.45;;;14.50;99.90;;;;;;5021109;28;20061;-89
2023/10/30 09:24:44;;;;;;;1.40;1.38;;;14.60;99.90;;;;;;4996784;28;20064;-87
2023/10/30 09:27:09;;;;;;;1.33;1.33;;;14.50;99.90;;;;;;5036362;28;20182;-88
2023/10/30 09:29:36;;;;;;;1.25;1.25;;;14.50;99.90;;;;;;5011431;28;20087;-90
2023/10/30 09:32:03;;;;;;;1.23;1.23;;;14.50;99.90;;;;;;5017090;28;20147;-86
2023/10/30 09:34:30;;;;;;;1.25;1.25;;;14.60;99.90;;;;;;5033108;28;20605;-93
2023/10/30 09:36:55;;;;;;;1.35;1.35;;;14.90;99.90;;;;;;5041925;28;20078;-88
2023/10/30 09:39:21;;;;;;;1.23;1.23;;;15.10;99.90;;;;;;5032860;28;20479;-85
2023/10/30 09:41:47;;;;;;;1.17;1.17;;;15.10;99.90;;;;;;5032991;28;20048;-91
2023/10/30 09:44:13;;;;;;;1.23;1.23;;;15.20;99.90;;;;;;5015541;28;20084;-87
2023/10/30 09:46:46;;;;;;;1.27;1.27;;;15.30;99.90;;;;;;5054181;28;20092;-95
2023/10/30 09:49:13;;;;;;;1.33;1.33;;;15.60;99.90;;;;;;5049246;28;20044;-87
2023/10/30 09:51:40;;;;;;;1.23;1.23;;;15.50;99.90;;;;;;5045706;28;20625;-85
2023/10/30 09:54:07;;;;;;;1.33;1.33;;;15.40;99.90;;;;;;5033095;28;20045;-88
2023/10/30 09:56:34;;;;;;;1.15;1.15;;;15.50;99.90;;;;;;5033437;28;20072;-93
2023/10/30 09:58:59;;;;;;;1.23;1.23;;;15.50;99.90;;;;;;5026266;28;20041;-84
2023/10/30 10:01:26;;;;;;;1.25;1.25;;;15.60;99.90;;;;;;5034996;28;20453;-90
2023/10/30 10:03:52;;;;;;;1.25;1.25;;;15.80;99.90;;;;;;5032461;28;20510;-91
2023/10/30 10:06:24;;;;;;;1.17;1.17;;;16.00;99.90;;;;;;5016864;28;20045;-95
2023/10/30 10:08:50;;;;;;;1.20;1.20;;;16.20;99.90;;;;;;5034495;28;20076;-86
2023/10/30 10:11:19;;;;;;;1.13;1.13;;;16.40;99.90;;;;;;5023455;28;20129;-85
2023/10/30 10:13:48;;;;;;;0.95;0.95;;;16.60;99.90;;;;;;5026092;28;20076;-90
2023/10/30 10:16:14;;;;;;;1.10;1.10;;;16.60;99.90;;;;;;5019160;28;20729;-85
2023/10/30 10:18:39;;;;;;;1.00;1.00;;;16.70;99.90;;;;;;5029621;28;20064;-89
2023/10/30 10:21:09;;;;;;;1.00;1.00;;;16.70;99.90;;;;;;5011059;28;20128;-89
2023/10/30 10:23:36;;;;;;;0.80;0.80;;;16.70;99.90;;;;;;5013603;28;20099;-85
2023/10/30 10:26:04;;;;;;;0.70;0.70;;;16.40;99.90;;;;;;5031247;28;20385;-86
2023/10/30 10:28:31;;;;;;;0.90;0.90;;;16.40;99.90;;;;;;5029248;28;20115;-86
2023/10/30 10:30:57;;;;;;;0.80;0.80;;;16.50;99.90;;;;;;5038363;28;20048;-85
2023/10/30 10:33:27;;;;;;;0.90;0.90;;;16.40;99.90;;;;;;5031334;28;20502;-86
2023/10/30 10:35:57;;;;;;;0.90;0.90;;;16.80;99.90;;;;;;5036034;28;20622;-86
2023/10/30 10:38:23;;;;;;;0.80;0.80;;;16.80;99.90;;;;;;5029625;28;20052;-85
2023/10/30 10:40:52;;;;;;;1.00;1.00;;;16.70;99.90;;;;;;5030520;28;20691;-87
2023/10/30 10:43:35;;;;;;;0.80;0.80;;;16.40;99.90;;;;;;5041860;28;20742;-92
2023/10/30 10:46:01;;;;;;;0.80;0.80;;;16.20;99.90;;;;;;5024531;28;20084;-91
2023/10/30 10:48:31;;;;;;;0.90;0.90;;;16.00;99.90;;;;;;5023627;28;20044;-90
2023/10/30 10:51:01;;;;;;;0.93;0.93;;;15.90;99.90;;;;;;5052601;28;20490;-92
2023/10/30 10:53:28;;;;;;;0.90;0.90;;;15.90;99.90;;;;;;5016266;28;20402;-90
2023/10/30 10:56:00;;;;;;;0.90;0.90;;;15.90;99.90;;;;;;5021972;28;20036;-94
2023/10/30 10:58:56;;;;;;;0.80;0.80;;;16.00;99.90;;;;;;5034488;28;20033;-89
2023/10/30 11:01:26;;;;;;;1.00;1.00;;;16.00;99.90;;;;;;5013614;28;20588;-94
2023/10/30 11:03:58;;;;;;;1.00;1.00;;;16.20;99.90;;;;;;5025481;28;20045;-93
2023/10/30 11:06:36;;;;;;;0.90;0.90;;;16.30;99.90;;;;;;5038747;28;20060;-87
2023/10/30 11:09:14;;;;;;;1.20;1.20;;;16.30;99.90;;;;;;5073278;28;20509;-88
2023/10/30 11:12:01;;;;;;;1.10;1.10;;;16.40;99.90;;;;;;5035987;28;20060;-90
2023/10/30 11:14:56;;;;;;;1.13;1.13;;;16.40;99.90;;;;;;5031672;28;20040;-87
2023/10/30 11:17:21;;;;;;;1.20;1.20;;;16.30;99.90;;;;;;5015539;28;20075;-85
2023/10/30 11:19:47;;;;;;;1.13;1.13;;;16.20;99.90;;;;;;5040436;28;20072;-86
2023/10/30 11:22:39;;;;;;;1.00;1.00;;;16.20;99.90;;;;;;5051909;28;20044;-88
2023/10/30 11:25:06;;;;;;;1.00;1.00;;;16.20;99.90;;;;;;5016404;28;20048;-88
2023/10/30 11:27:31;;;;;;;1.02;1.02;;;16.30;99.90;;;;;;5030071;28;20045;-87
2023/10/30 11:30:01;;;;;;;1.00;1.00;;;16.40;99.90;;;;;;5022132;28;20041;-87
2023/10/30 11:32:32;;;;;;;0.90;0.90;;;16.40;99.90;;;;;;5033124;28;20045;-91
2023/10/30 11:34:59;;;;;;;1.00;1.00;;;16.30;99.90;;;;;;5033701;28;20053;-87
2023/10/30 11:37:27;;;;;;;1.10;1.10;;;16.30;99.90;;;;;;5015222;28;20053;-85
2023/10/30 11:39:54;;;;;;;0.90;0.90;;;16.20;99.90;;;;;;5038106;28;20067;-87
2023/10/30 11:42:22;;;;;;;0.90;0.90;;;16.20;99.90;;;;;;5039537;28;20493;-93
2023/10/30 11:44:53;;;;;;;1.10;1.10;;;16.20;99.90;;;;;;5015308;28;20510;-89
2023/10/30 11:47:23;;;;;;;1.00;1.00;;;16.30;99.90;;;;;;5016866;28;20041;-93
2023/10/30 11:49:49;;;;;;;1.00;1.00;;;16.40;99.90;;;;;;5013720;28;20091;-86
2023/10/30 11:52:15;;;;;;;0.90;0.90;;;16.50;99.90;;;;;;5032280;28;20052;-86
2023/10/30 11:54:45;;;;;;;1.10;1.10;;;16.50;99.90;;;;;;5038865;28;20043;-87
2023/10/30 11:57:13;;;;;;;0.90;0.90;;;16.60;99.90;;;;;;5053847;28;20083;-90
2023/10/30 11:59:42;;;;;;;0.82;0.82;;;16.60;99.90;;;;;;5034830;28;20505;-95
2023/10/30 12:02:08;;;;;;;1.10;1.10;;;16.50;99.90;;;;;;5040521;28;20088;-86
2023/10/30 12:04:33;;;;;;;0.90;0.90;;;16.50;99.90;;;;;;5039723;28;20079;-88
2023/10/30 12:07:00;;;;;;;0.95;0.95;;;16.40;99.90;;;;;;5040039;28;20055;-85
2023/10/30 12:09:26;;;;;;;0.90;0.90;;;16.40;99.90;;;;;;5038638;28;20502;-88
2023/10/30 12:12:18;;;;;;;1.02;1.02;;;16.30;99.90;;;;;;5044000;28;20119;-92
2023/10/30 12:14:44;;;;;;;1.10;1.10;;;16.40;99.90;;;;;;4993743;28;20049;-90
2023/10/30 12:17:14;;;;;;;1.00;1.00;;;16.40;99.90;;;;;;5020102;28;20751;-89
2023/10/30 12:19:42;;;;;;;0.90;0.90;;;16.30;99.90;;;;;;5050030;28;20052;-84
2023/10/30 12:22:29;;;;;;;0.90;0.90;;;16.30;99.90;;;;;;5053487;28;20057;-93
2023/10/30 12:24:56;;;;;;;1.10;1.10;;;16.40;99.90;;;;;;5035885;28;20055;-90
2023/10/30 12:27:38;;;;;;;1.00;1.00;;;16.40;99.90;;;;;;5049611;28;20120;-94
2023/10/30 12:30:11;;;;;;;1.10;1.10;;;16.60;99.90;;;;;;5054346;28;20038;-91
2023/10/30 12:32:39;;;;;;;1.33;1.33;;;16.70;99.90;;;;;;5024807;28;20053;-95
2023/10/30 12:35:14;;;;;;;2.05;1.95;;;16.80;99.90;;;;;;5018801;28;20053;-94
2023/10/30 12:37:52;;;;;;;2.17;2.08;;;17.00;99.90;;;;;;5018193;28;20036;-92
2023/10/30 12:40:18;;;;;;;1.75;1.65;;;17.10;99.90;;;;;;5029952;28;20208;-89
2023/10/30 12:42:57;;;;;;;;;;;;;;;;;;;;;
2023/10/30 12:45:26;;;;;;;1.90;1.80;;;17.30;99.90;;;;;;5027127;28;20106;-96
2023/10/30 12:48:08;;;;;;;1.65;1.55;;;17.30;99.90;;;;;;5019368;28;20049;-94
2023/10/30 12:50:35;;;;;;;1.95;1.85;;;17.50;99.90;;;;;;5015065;28;20048;-90
2023/10/30 12:53:10;;;;;;;1.55;1.45;;;17.30;99.90;;;;;;5015364;28;20045;-92
2023/10/30 12:55:40;;;;;;;1.63;1.52;;;17.10;99.90;;;;;;5038558;28;20068;-92
2023/10/30 12:58:29;;;;;;;;;;;;;;;;;;;;;
2023/10/30 13:01:03;;;;;;;1.75;1.65;;;16.80;99.90;;;;;;5036321;28;20037;-90